Dorset, Vermont
Current Conditions -  °F | °C
As of 5:15 PM on Thursday 18 Dec 2014 (Local Time) from KRUT Reporting Station
Overcast Overcast  
Wind Chill: 24°   Ceiling: 2400
Heat Index: 32°   Visibility: 10mi
Dew Point: 25°   Wind: 10mph
Humidity: 75%   Direction: 330°NNW
Pressure: 29.86"   Gusts: NA
Location:  43.26°N, 73.1°W
Report Text: KRUT 182215Z 33009KT 10SM OVC024 00/M04 A2986 RMK AO1
Loading
Personal Weather Stations






























Interactive Weather Map New forecast layout! Learn more

10-Day Weather Forecast

Advertisements
Track Severe Weather on mobile